Avon, Pennsylvania
Current Conditions -  °F | °C
As of 12:58 PM on Monday 20 Oct 2014 (Local Time) from KMUI Reporting Station
Overcast Overcast  
Wind Chill: 56°   Ceiling: 16000
Heat Index: 56°   Visibility: 10mi
Dew Point: 42°   Wind: 6mph
Humidity: 60%   Direction: NA
Pressure: 30.02"   Gusts: NA
Location:  40.2957°N, 76.4189°W
Report Text: KMUI 201658Z AUTO VRB05KT 10SM OVC160 13/06 A3002 RMK AO2 SLP170 T01340057 $
Loading
Personal Weather Stations






























Interactive Weather Map
Tropical Storm Tracking
New forecast layout! Learn more

10-Day Weather Forecast

Advertisements
Track Severe Weather on mobile